createdAt,value
2018-04-12T00:03:29.586Z,19.21
2018-04-12T00:05:30.247Z,20.66
2018-04-12T00:09:30.941Z,19.48
2018-04-12T00:15:32.357Z,18.42
2018-04-12T00:19:33.068Z,18.15
2018-04-12T00:25:33.984Z,17.07
2018-04-12T00:31:34.676Z,15.37
2018-04-12T00:35:35.666Z,16.57
2018-04-12T00:41:36.469Z,19.26
2018-04-12T00:45:37.182Z,18.25
2018-04-12T00:51:37.929Z,18.5
2018-04-12T00:57:38.831Z,16.91
2018-04-12T01:01:39.632Z,17.4
2018-04-12T01:07:40.420Z,18.48
2018-04-12T01:11:41.319Z,18.34
2018-04-12T01:13:42.055Z,18.13
2018-04-12T01:17:42.797Z,16.62
2018-04-12T01:23:43.500Z,15.87
2018-04-12T01:27:44.423Z,15.32
2018-04-12T01:33:45.213Z,17.17
2018-04-12T01:39:45.864Z,14.26
2018-04-12T01:43:46.696Z,14.6
2018-04-12T01:49:47.487Z,13.16
2018-04-12T01:53:48.175Z,12.07
2018-04-12T01:55:48.955Z,11.35
2018-04-12T01:59:49.763Z,10.6
2018-04-12T02:05:50.618Z,11.15
2018-04-12T02:09:51.506Z,10.44
2018-04-12T02:15:52.249Z,10.65
2018-04-12T02:19:53.146Z,9.39
2018-04-12T02:21:53.887Z,9.82
2018-04-12T02:25:54.759Z,10.25
2018-04-12T02:31:55.539Z,9.66
2018-04-12T02:35:56.385Z,10.08
2018-04-12T02:41:57.215Z,10.39
2018-04-12T02:47:57.959Z,11.23
2018-04-12T02:51:58.628Z,11.22
2018-04-12T02:57:59.612Z,11.15
2018-04-12T03:02:00.342Z,10.73
2018-04-12T03:04:01.065Z,10.9
2018-04-12T03:08:01.910Z,11.62
2018-04-12T03:14:02.631Z,11.68
2018-04-12T03:18:03.354Z,12.33
2018-04-12T03:24:04.084Z,13.67
2018-04-12T03:28:04.798Z,12.29
2018-04-12T03:30:05.655Z,12.48
2018-04-12T03:34:06.428Z,13.13
2018-04-12T03:40:07.333Z,13.69
2018-04-12T03:44:08.169Z,13.46
2018-04-12T03:50:08.881Z,14.49
2018-04-12T03:56:09.592Z,16.49
2018-04-12T04:00:10.524Z,15.34
2018-04-12T04:06:11.387Z,15.69
2018-04-12T04:10:12.141Z,15.97
2018-04-12T04:12:12.748Z,15.67
2018-04-12T04:16:13.517Z,15.31
2018-04-12T04:22:14.361Z,17.21
2018-04-12T04:26:15.109Z,16.43
2018-04-12T04:32:15.889Z,18.21
2018-04-12T04:38:16.667Z,18.64
2018-04-12T04:42:17.395Z,18.83
2018-04-12T04:48:18.318Z,18.82
2018-04-12T04:52:19.094Z,18.29
2018-04-12T04:58:19.836Z,19.22
2018-04-12T05:04:20.632Z,20.64
2018-04-12T05:08:21.400Z,20.17
2018-04-12T05:14:22.150Z,21.7
2018-04-12T05:18:23.048Z,21.81
2018-04-12T05:20:23.765Z,21.37
2018-04-12T05:24:24.683Z,21.39
2018-04-12T05:30:25.743Z,19.77
2018-04-12T05:34:26.552Z,20.47
2018-04-12T05:46:31.076Z,19.05
2018-04-12T05:46:31.205Z,18.1
2018-04-12T05:50:32.044Z,20.28
2018-04-12T05:56:32.754Z,22.89
2018-04-12T06:00:34.114Z,22.06
2018-04-12T06:06:35.103Z,23.16
2018-04-12T06:12:35.797Z,23.73
2018-04-12T06:16:36.647Z,24.48
2018-04-12T06:22:37.403Z,25.46
2018-04-12T06:26:38.406Z,23.87
2018-04-12T06:28:39.125Z,23.97
2018-04-12T06:32:39.869Z,23.54
2018-04-12T06:38:40.884Z,22.81
2018-04-12T06:42:41.764Z,22.52
2018-04-12T06:48:42.759Z,22.91
2018-04-12T06:54:43.614Z,23.01
2018-04-12T06:58:44.404Z,22.62
2018-04-12T07:04:45.155Z,24.41
2018-04-12T07:08:45.872Z,22.58
2018-04-12T07:14:46.885Z,22.35
2018-04-12T07:20:47.642Z,23.41
2018-04-12T07:24:48.424Z,23.11
2018-04-12T07:30:49.327Z,24.5
2018-04-12T07:34:50.243Z,23.52
2018-04-12T07:36:51.043Z,24.97
2018-04-12T07:40:51.749Z,24.33
2018-04-12T07:46:52.610Z,27.09
2018-04-12T07:50:53.504Z,24.04
2018-04-12T07:56:54.352Z,24.85
2018-04-12T08:02:55.154Z,24.22
2018-04-12T08:06:55.959Z,23.75
2018-04-12T08:12:56.670Z,21.87
2018-04-12T08:16:57.636Z,21.29
2018-04-12T08:22:58.660Z,22.61
2018-04-12T08:28:59.528Z,21.37
2018-04-12T08:33:00.298Z,21.29
2018-04-12T08:39:01.183Z,21.65
2018-04-12T08:43:01.938Z,22.75
2018-04-12T08:45:02.805Z,24.79
2018-04-12T08:49:03.585Z,25.06
2018-04-12T08:55:04.461Z,23
2018-04-12T08:59:05.341Z,22.77
2018-04-12T09:05:06.112Z,23.39
2018-04-12T09:11:06.918Z,20.41
2018-04-12T09:15:08.074Z,20.32
2018-04-12T09:21:08.900Z,19.85
2018-04-12T09:25:09.656Z,19.64
2018-04-12T09:27:10.378Z,20.85
2018-04-12T09:31:11.455Z,19.88
2018-04-12T09:37:12.273Z,19.19
2018-04-12T09:41:13.141Z,19.09
2018-04-12T09:47:14.195Z,18.6
2018-04-12T09:51:14.883Z,19.26
2018-04-12T09:53:15.652Z,18.85
2018-04-12T09:57:16.457Z,18.78
2018-04-12T10:03:17.167Z,19.56
2018-04-12T10:07:18.206Z,18.3
2018-04-12T10:13:18.873Z,14.85
2018-04-12T10:19:19.573Z,12.87
2018-04-12T10:23:20.375Z,11.75
2018-04-12T10:29:21.158Z,9.82
2018-04-12T10:33:21.910Z,8.98
2018-04-12T10:35:22.623Z,10.23
2018-04-12T10:39:23.380Z,9.75
2018-04-12T10:45:24.565Z,9.38
2018-04-12T10:49:25.375Z,8.81
2018-04-12T10:55:26.211Z,7.53
2018-04-12T10:59:27.014Z,7.18
2018-04-12T11:01:27.737Z,8.01
2018-04-12T11:05:28.544Z,7
2018-04-12T11:11:29.499Z,5.41
2018-04-12T11:15:30.443Z,4.98
2018-04-12T11:21:31.189Z,5.06
2018-04-12T11:27:31.990Z,4
2018-04-12T11:31:32.775Z,4.05
2018-04-12T11:37:33.667Z,4.26
2018-04-12T11:41:34.459Z,3.7
2018-04-12T11:43:35.309Z,4.28
2018-04-12T11:47:36.034Z,4.06
2018-04-12T11:53:36.930Z,4.94
2018-04-12T11:57:37.636Z,4.9
2018-04-12T12:03:38.516Z,4.62
2018-04-12T12:07:39.228Z,4.27
2018-04-12T12:09:40.042Z,3.78
2018-04-12T12:13:41.014Z,3.99
2018-04-12T12:19:41.777Z,4.04
2018-04-12T12:23:42.516Z,3.63
2018-04-12T12:29:43.314Z,4.24
2018-04-12T12:35:44.130Z,4.54
2018-04-12T12:39:45.138Z,4.64
2018-04-12T12:45:45.781Z,4.05
2018-04-12T12:49:46.588Z,3.83
2018-04-12T12:51:47.309Z,4.74
2018-04-12T12:55:48.115Z,4.29
2018-04-12T13:01:48.889Z,4.76
2018-04-12T13:05:49.658Z,4.06
2018-04-12T13:11:50.423Z,3.41
2018-04-12T13:17:51.326Z,4.01
2018-04-12T13:21:52.046Z,4.11
2018-04-12T13:27:52.839Z,4.55
2018-04-12T13:31:53.746Z,4.37
2018-04-12T13:37:54.445Z,3.03
2018-04-12T13:43:55.287Z,4.19
2018-04-12T13:47:56.082Z,4.44
2018-04-12T13:53:56.814Z,4.59
2018-04-12T13:57:57.499Z,4.06
2018-04-12T13:59:58.347Z,4.32
2018-04-12T14:03:59.190Z,4.03
2018-04-12T14:10:00.147Z,4.6
2018-04-12T14:14:00.778Z,4.3
2018-04-12T14:20:01.646Z,5.79
2018-04-12T14:26:02.437Z,4.61
2018-04-12T14:30:03.220Z,4.25
2018-04-12T14:36:04.071Z,6.56
2018-04-12T14:40:04.795Z,6.44
2018-04-12T14:42:05.557Z,6.75
2018-04-12T14:46:06.399Z,6.92
2018-04-12T14:52:07.184Z,14.01
2018-04-12T14:56:08.326Z,12.55
2018-04-12T15:06:11.711Z,10.4
2018-04-12T15:06:12.008Z,11.79
2018-04-12T15:08:12.700Z,7.63
2018-04-12T15:12:13.483Z,6.83
2018-04-12T15:18:14.516Z,5.71
2018-04-12T15:22:15.308Z,5.27
2018-04-12T15:28:16.130Z,4.94
2018-04-12T15:34:16.784Z,5.35
2018-04-12T15:38:17.487Z,6.81
2018-04-12T15:44:18.269Z,4.17
2018-04-12T15:48:19.100Z,4.96
2018-04-12T15:50:19.914Z,5.05
2018-04-12T15:54:20.676Z,4.22
2018-04-12T16:00:21.678Z,4.58
2018-04-12T16:04:22.444Z,3.77
2018-04-12T16:10:23.558Z,5.16
2018-04-12T16:14:24.492Z,4.92
2018-04-12T16:16:25.265Z,4.58
2018-04-12T16:20:26.178Z,4.46
2018-04-12T16:26:26.867Z,5.45
2018-04-12T16:30:28.437Z,5.03
2018-04-12T16:36:29.535Z,5.09
2018-04-12T16:42:30.344Z,4.51
2018-04-12T16:46:31.127Z,4.27
2018-04-12T16:52:31.872Z,5.15
2018-04-12T16:56:32.950Z,4.74
2018-04-12T16:58:33.688Z,5.02
2018-04-12T17:02:34.553Z,4.81
2018-04-12T17:08:35.313Z,5.09
2018-04-12T17:12:36.171Z,4.17
2018-04-12T17:18:37.095Z,4.51
2018-04-12T17:22:37.857Z,4.14
2018-04-12T17:28:40.386Z,4.63
2018-04-12T17:28:40.473Z,4.06
2018-04-12T17:34:41.236Z,3.99
2018-04-12T17:38:42.559Z,4.18
2018-04-12T17:44:43.389Z,4.13
2018-04-12T17:50:44.231Z,5
2018-04-12T17:54:45.211Z,5.05
2018-04-12T18:00:46.142Z,4.47
2018-04-12T18:04:46.839Z,4.4
2018-04-12T18:06:47.632Z,5.37
2018-04-12T18:10:48.417Z,4.53
2018-04-12T18:16:49.567Z,4.3
2018-04-12T18:20:50.365Z,4.58
2018-04-12T18:26:51.159Z,4.74
2018-04-12T18:30:51.986Z,4.82
2018-04-12T18:32:52.994Z,5.01
2018-04-12T18:36:53.732Z,4.79
2018-04-12T18:42:54.558Z,4.33
2018-04-12T18:46:55.410Z,4.75
2018-04-12T18:52:56.183Z,6.15
2018-04-12T18:58:56.906Z,5.12
2018-04-12T19:02:57.700Z,4.6
2018-04-12T19:08:58.601Z,5.48
2018-04-12T19:12:59.440Z,5.54
2018-04-12T19:15:00.269Z,5.24
2018-04-12T19:19:01.050Z,5.26
2018-04-12T19:25:01.759Z,5.71
2018-04-12T19:29:02.709Z,5.99
2018-04-12T19:35:03.567Z,6.51
2018-04-12T19:41:04.259Z,6.54
2018-04-12T19:45:05.315Z,6.29
2018-04-12T19:51:06.148Z,5.78
2018-04-12T19:55:07.665Z,5.79
2018-04-12T20:01:08.481Z,5.94
2018-04-12T20:07:09.241Z,7.16
2018-04-12T20:11:10.227Z,6.44
2018-04-12T20:17:11.067Z,4.9
2018-04-12T20:21:11.936Z,5.38
2018-04-12T20:23:12.727Z,6.13
2018-04-12T20:27:13.533Z,5.7
2018-04-12T20:33:14.354Z,5.75
2018-04-12T20:37:15.274Z,5.11
2018-04-12T20:43:16.141Z,6.06
2018-04-12T20:47:17.170Z,5.2
2018-04-12T20:49:17.910Z,6.06
2018-04-12T20:53:18.682Z,5.66
2018-04-12T20:59:19.401Z,5.72
2018-04-12T21:03:20.183Z,6.3
2018-04-12T21:09:21.092Z,9.1
2018-04-12T21:15:22.181Z,9.42
2018-04-12T21:19:22.989Z,9.69
2018-04-12T21:25:23.761Z,8.41
2018-04-12T21:29:24.569Z,8.26
2018-04-12T21:31:25.534Z,10.11
2018-04-12T21:35:26.400Z,9.22
2018-04-12T21:41:27.132Z,11.16
2018-04-12T21:45:28.779Z,10.98
2018-04-12T21:51:29.643Z,10.95
2018-04-12T21:55:30.244Z,11.21
2018-04-12T21:57:31.048Z,11.38
2018-04-12T22:01:31.920Z,11.1
2018-04-12T22:07:32.736Z,9.85
2018-04-12T22:11:33.382Z,10.66
2018-04-12T22:17:34.259Z,8.71
2018-04-12T22:23:35.050Z,8.74
2018-04-12T22:27:35.792Z,8.54
2018-04-12T22:33:36.582Z,8.44
2018-04-12T22:37:37.234Z,8.44
2018-04-12T22:39:38.016Z,7.68
2018-04-12T22:43:38.790Z,7.72
2018-04-12T22:49:39.627Z,7.24
2018-04-12T22:53:40.373Z,6.42
2018-04-12T22:59:41.114Z,7.14
2018-04-12T23:05:41.932Z,6.82
2018-04-12T23:09:42.649Z,6.34
2018-04-12T23:15:43.472Z,5.99
2018-04-12T23:19:44.242Z,6.03
2018-04-12T23:25:44.991Z,5.83
2018-04-12T23:31:45.806Z,5.68
2018-04-12T23:35:46.609Z,5.99
2018-04-12T23:41:47.318Z,5.77
2018-04-12T23:45:48.016Z,5.53
2018-04-12T23:47:48.839Z,5.88
2018-04-12T23:51:49.592Z,5.34
2018-04-12T23:57:50.403Z,5.2
